Time;durP1;ratioP1;P1;durP2;ratioP2;P2;SDS_P1;SDS_P2;PMS_P1;PMS_P2;Temp;Humidity;BMP_temperature;BMP_pressure;BME280_temperature;BME280_humidity;BME280_pressure;Samples;Min_cycle;Max_cycle;Signal;HPM_P1;HPM_P2
2022/09/24 00:00:54;;;;;;;;;12.75;10.00;;;;;17.26;53.78;100966.38;5007090;28;47620;-82
2022/09/24 00:03:24;;;;;;;;;14.50;12.75;;;;;17.28;54.12;100963.69;5001881;28;45738;-82
2022/09/24 00:05:54;;;;;;;;;12.50;10.75;;;;;17.26;54.00;100960.19;5007344;28;45307;-82
2022/09/24 00:08:19;;;;;;;;;15.25;11.50;;;;;17.29;54.46;100965.41;5005129;28;45450;-83
2022/09/24 00:10:47;;;;;;;;;14.50;13.00;;;;;17.31;54.27;100961.78;4991821;28;47191;-81
2022/09/24 00:13:16;;;;;;;;;12.25;10.00;;;;;17.32;54.49;100968.88;4998046;28;45945;-81
2022/09/24 00:15:45;;;;;;;;;13.75;13.50;;;;;17.30;54.53;100964.50;5004303;28;45264;-82
2022/09/24 00:18:11;;;;;;;;;15.50;13.50;;;;;17.27;54.54;100962.81;5013376;28;45816;-81
2022/09/24 00:20:37;;;;;;;;;13.00;12.25;;;;;17.28;54.78;100961.88;4999897;28;47058;-82
2022/09/24 00:23:05;;;;;;;;;13.75;13.00;;;;;17.27;54.55;100954.84;5004923;28;45345;-82
2022/09/24 00:28:15;;;;;;;;;11.50;11.50;;;;;17.27;54.61;100951.28;5005636;28;45268;-83
2022/09/24 00:30:43;;;;;;;;;13.00;12.50;;;;;17.26;54.34;100953.06;5012362;28;45476;-81
2022/09/24 00:33:10;;;;;;;;;15.00;14.25;;;;;17.27;54.73;100959.25;5008230;28;45825;-81
2022/09/24 00:35:37;;;;;;;;;8.50;7.00;;;;;17.26;54.43;100952.19;4998700;28;44752;-82
2022/09/24 00:38:04;;;;;;;;;14.00;11.00;;;;;17.23;54.18;100953.16;5004373;28;45310;-82
2022/09/24 00:40:32;;;;;;;;;13.00;12.25;;;;;17.22;54.42;100956.75;4990886;28;47598;-81
2022/09/24 00:42:58;;;;;;;;;12.00;11.75;;;;;17.23;54.52;100961.13;5022227;28;45290;-81
2022/09/24 00:45:29;;;;;;;;;11.25;11.25;;;;;17.22;54.48;100956.75;4999951;28;45247;-82
2022/09/24 00:47:57;;;;;;;;;9.75;9.50;;;;;17.22;54.33;100963.84;5006676;28;45406;-82
2022/09/24 00:50:31;;;;;;;;;10.25;9.00;;;;;17.16;54.51;100960.44;4987522;28;47089;-82
2022/09/24 00:53:11;;;;;;;;;10.25;9.25;;;;;17.12;54.83;100949.94;5004781;28;45256;-82
2022/09/24 00:55:39;;;;;;;;;12.25;10.00;;;;;17.13;55.11;100949.91;4987955;28;45431;-81
2022/09/24 00:58:07;;;;;;;;;11.50;10.75;;;;;17.14;55.23;100946.31;5002902;28;45424;-80
2022/09/24 01:00:35;;;;;;;;;12.00;12.00;;;;;17.15;55.52;100955.16;5002262;28;46927;-81
2022/09/24 01:03:11;;;;;;;;;8.25;7.50;;;;;17.15;55.44;100953.38;4988914;28;45426;-81
2022/09/24 01:05:37;;;;;;;;;12.75;10.00;;;;;17.17;55.70;100948.00;5006868;28;45293;-81
2022/09/24 01:08:05;;;;;;;;;11.75;11.25;;;;;17.18;55.72;100952.41;4985601;28;45381;-81
2022/09/24 01:10:47;;;;;;;;;16.75;14.25;;;;;17.16;55.65;100947.16;5002976;28;45421;-81
2022/09/24 01:13:32;;;;;;;;;11.00;11.00;;;;;17.12;55.66;100948.13;4984854;28;45520;-81
2022/09/24 01:16:35;;;;;;;;;11.25;9.50;;;;;17.10;55.88;100949.09;4985067;28;45441;-80
2022/09/24 01:19:04;;;;;;;;;5.25;4.00;;;;;17.06;56.01;100953.63;5002610;28;45312;-81
2022/09/24 01:21:44;;;;;;;;;10.25;9.75;;;;;17.04;56.44;100944.81;4996259;28;47167;-81
2022/09/24 01:24:46;;;;;;;;;17.50;12.75;;;;;17.00;56.55;100943.16;5002923;28;45584;-81
2022/09/24 01:27:58;;;;;;;;;14.00;11.75;;;;;16.97;56.63;100946.78;5002493;28;45225;-81
2022/09/24 01:30:24;;;;;;;;;13.00;9.75;;;;;16.96;57.05;100946.81;4997452;28;45445;-81
2022/09/24 01:32:54;;;;;;;;;12.25;11.50;;;;;16.94;57.11;100933.53;4990931;28;47425;-79
2022/09/24 01:35:36;;;;;;;;;10.50;10.50;;;;;16.90;57.37;100939.88;5002453;28;45410;-79
2022/09/24 01:38:09;;;;;;;;;13.50;10.75;;;;;16.84;57.25;100936.47;4989851;28;45400;-80
2022/09/24 01:40:37;;;;;;;;;15.00;12.50;;;;;16.79;57.71;100933.09;4976920;28;45257;-81
2022/09/24 01:43:06;;;;;;;;;15.50;13.50;;;;;16.74;58.00;100930.53;4998842;28;47076;-81
2022/09/24 01:45:32;;;;;;;;;13.75;13.25;;;;;16.74;58.19;100927.88;4996602;28;45919;-81
2022/09/24 01:48:03;;;;;;;;;14.50;13.50;;;;;16.72;58.21;100919.91;4997824;28;45373;-81
2022/09/24 01:50:33;;;;;;;;;14.25;12.75;;;;;16.74;58.30;100915.44;4985429;28;45289;-81
2022/09/24 01:53:05;;;;;;;;;16.00;15.75;;;;;16.73;58.69;100920.78;4984169;28;47863;-80
2022/09/24 01:55:37;;;;;;;;;12.50;12.50;;;;;16.74;58.95;100906.59;4993734;28;45526;-81
2022/09/24 01:58:32;;;;;;;;;9.75;9.75;;;;;16.73;59.45;100905.72;5112448;27;45446;-82
2022/09/24 02:01:06;;;;;;;;;10.75;9.50;;;;;16.74;59.17;100899.47;5098060;27;45316;-81
2022/09/24 02:03:42;;;;;;;;;14.50;12.75;;;;;16.77;59.10;100895.91;5098778;27;45314;-82
2022/09/24 02:06:21;;;;;;;;;13.50;12.50;;;;;16.80;59.51;100897.63;5113480;27;45428;-81
2022/09/24 02:08:47;;;;;;;;;13.75;12.00;;;;;16.79;59.42;100896.75;5098238;27;46969;-82
2022/09/24 02:11:16;;;;;;;;;15.00;13.25;;;;;16.81;59.76;100902.88;5098213;27;45418;-81
2022/09/24 02:13:50;;;;;;;;;12.25;12.25;;;;;16.79;59.82;100891.44;5098270;27;45283;-81
2022/09/24 02:16:20;;;;;;;;;15.00;14.50;;;;;16.79;59.58;100891.44;5098366;27;45471;-82
2022/09/24 02:18:49;;;;;;;;;15.00;12.25;;;;;16.80;59.97;100901.13;5096789;27;47137;-82
2022/09/24 02:21:19;;;;;;;;;16.25;14.50;;;;;16.79;60.04;100901.19;5098515;27;45301;-82
2022/09/24 02:23:50;;;;;;;;;13.75;13.75;;;;;16.79;60.09;100901.19;5104392;27;45439;-81
2022/09/24 02:26:16;;;;;;;;;15.00;15.00;;;;;16.73;60.26;100884.47;5096522;27;45514;-81
2022/09/24 02:28:41;;;;;;;;;21.00;20.50;;;;;16.75;60.17;100884.41;5113623;27;47966;-81
2022/09/24 02:31:12;;;;;;;;;17.50;17.00;;;;;16.74;60.39;100880.00;5098003;27;45349;-82
2022/09/24 02:36:30;;;;;;;;;13.50;13.25;;;;;16.71;60.34;100890.72;5097412;27;45420;-81
2022/09/24 02:38:56;;;;;;;;;16.25;14.50;;;;;16.69;60.57;100884.56;5083414;27;47283;-81
2022/09/24 02:41:23;;;;;;;;;17.50;16.25;;;;;16.66;60.76;100882.88;5093102;27;45294;-81
2022/09/24 02:43:49;;;;;;;;;12.25;12.25;;;;;16.65;60.63;100880.25;5096320;27;45479;-81
2022/09/24 02:46:17;;;;;;;;;14.75;14.75;;;;;16.63;61.03;100876.78;5095617;27;45471;-81
2022/09/24 02:48:43;;;;;;;;;19.00;18.00;;;;;16.58;61.06;100876.88;5096533;27;47064;-80
2022/09/24 02:51:08;;;;;;;;;15.00;13.75;;;;;16.61;60.96;100881.25;5094514;27;45422;-81
2022/09/24 02:53:37;;;;;;;;;15.50;15.50;;;;;16.62;61.17;100872.34;5109698;27;45445;-81
2022/09/24 02:56:03;;;;;;;;;15.00;13.25;;;;;16.60;60.92;100875.06;5074003;27;45461;-82
2022/09/24 02:58:29;;;;;;;;;17.25;15.75;;;;;16.61;61.19;100867.97;5097575;27;46126;-82
2022/09/24 03:00:56;;;;;;;;;16.00;15.00;;;;;16.60;60.99;100863.53;5098140;27;45401;-80
2022/09/24 03:03:30;;;;;;;;;14.00;12.75;;;;;16.60;60.95;100861.78;5096761;27;45416;-81
2022/09/24 03:05:56;;;;;;;;;14.75;14.25;;;;;16.60;61.18;100864.44;5095470;27;45572;-80
2022/09/24 03:08:23;;;;;;;;;17.50;14.50;;;;;16.61;61.34;100867.97;5089969;27;46446;-81
2022/09/24 03:10:49;;;;;;;;;18.75;17.75;;;;;16.60;61.40;100860.88;5084008;28;45289;-80
2022/09/24 03:13:16;;;;;;;;;17.75;16.75;;;;;16.60;61.25;100859.13;5086292;27;45327;-81
2022/09/24 03:15:42;;;;;;;;;15.50;14.50;;;;;16.60;61.44;100863.53;5085330;28;45383;-80
2022/09/24 03:18:07;;;;;;;;;13.25;13.25;;;;;16.61;61.40;100862.66;5089985;27;46558;-81
2022/09/24 03:20:32;;;;;;;;;12.75;12.50;;;;;16.58;61.60;100855.63;5087716;27;45372;-81
2022/09/24 03:22:58;;;;;;;;;16.25;13.75;;;;;16.54;61.74;100851.28;5083868;27;45433;-81
2022/09/24 03:25:28;;;;;;;;;15.75;13.50;;;;;16.56;61.75;100856.56;5082332;28;45503;-81
2022/09/24 03:27:53;;;;;;;;;13.75;12.50;;;;;16.54;62.02;100857.50;5081440;28;46559;-81
2022/09/24 03:33:03;;;;;;;;;17.25;12.75;;;;;16.49;61.93;100846.13;5082919;28;45287;-81
2022/09/24 03:35:30;;;;;;;;;16.00;12.25;;;;;16.45;62.22;100847.09;5082666;27;45164;-81
2022/09/24 03:37:56;;;;;;;;;16.75;14.75;;;;;16.44;62.37;100844.47;5089767;27;48183;-81
2022/09/24 03:40:21;;;;;;;;;13.75;12.50;;;;;16.41;61.75;100845.44;5098677;27;45226;-81
2022/09/24 03:42:47;;;;;;;;;15.75;14.75;;;;;16.37;61.93;100848.22;5083231;28;45290;-80
2022/09/24 03:45:14;;;;;;;;;14.75;12.75;;;;;16.36;61.94;100847.34;5082316;28;45911;-80
2022/09/24 03:47:42;;;;;;;;;12.25;11.25;;;;;16.35;62.00;100855.34;5083139;27;46025;-81
2022/09/24 03:50:10;;;;;;;;;11.25;11.25;;;;;16.32;62.22;100845.66;5082453;27;45325;-81
2022/09/24 03:52:38;;;;;;;;;11.00;10.75;;;;;16.30;62.03;100839.50;5082839;27;45350;-80
2022/09/24 03:55:04;;;;;;;;;14.00;13.25;;;;;16.33;61.90;100842.09;5082598;27;45461;-81
2022/09/24 03:57:29;;;;;;;;;14.75;14.00;;;;;16.30;61.81;100842.16;5078150;27;47093;-81
2022/09/24 03:59:54;;;;;;;;;14.00;11.75;;;;;16.33;62.05;100844.75;5077475;28;45456;-80
2022/09/24 04:02:20;;;;;;;;;11.25;11.00;;;;;16.30;62.10;100839.50;5089601;27;45381;-81
2022/09/24 04:04:46;;;;;;;;;12.25;10.75;;;;;16.31;62.13;100844.81;5097685;27;45337;-81
2022/09/24 04:07:14;;;;;;;;;15.25;12.75;;;;;16.29;62.06;100837.78;5081327;28;47336;-81
2022/09/24 04:09:41;;;;;;;;;11.50;10.50;;;;;16.33;62.03;100834.13;5082666;28;45279;-82
2022/09/24 04:12:06;;;;;;;;;14.75;13.75;;;;;16.32;62.24;100833.25;5082931;27;45145;-80
2022/09/24 04:14:32;;;;;;;;;10.75;10.75;;;;;16.36;62.20;100835.81;5080841;28;45505;-81
2022/09/24 04:16:57;;;;;;;;;14.50;14.00;;;;;16.36;62.22;100822.53;5077765;28;47093;-81
2022/09/24 04:19:24;;;;;;;;;13.50;13.00;;;;;16.36;62.10;100836.72;5080380;27;45317;-82
2022/09/24 04:21:49;;;;;;;;;14.75;12.00;;;;;16.35;62.00;100832.28;5081215;28;45275;-81
2022/09/24 04:24:14;;;;;;;;;13.50;12.00;;;;;16.34;62.17;100827.91;5082285;28;45388;-81
2022/09/24 04:26:40;;;;;;;;;13.00;12.75;;;;;16.34;61.85;100833.22;5083080;27;45822;-81
2022/09/24 04:29:05;;;;;;;;;15.25;13.00;;;;;16.35;62.29;100834.09;5082657;27;45354;-81
2022/09/24 04:31:32;;;;;;;;;11.25;10.00;;;;;16.35;62.06;100839.41;5083331;27;45348;-81
2022/09/24 04:33:57;;;;;;;;;12.75;11.00;;;;;16.32;62.27;100835.03;5083108;27;45381;-80
2022/09/24 04:36:26;;;;;;;;;12.25;12.00;;;;;16.31;62.15;100839.50;5082283;28;46437;-81
2022/09/24 04:38:51;;;;;;;;;13.00;12.00;;;;;16.26;62.06;100833.41;5098144;27;45322;-81
2022/09/24 04:41:19;;;;;;;;;13.00;12.75;;;;;16.26;62.01;100844.03;5082943;27;45344;-81
2022/09/24 04:43:47;;;;;;;;;11.00;10.75;;;;;16.26;62.19;100841.38;5076250;28;45429;-81
2022/09/24 04:46:17;;;;;;;;;14.25;13.25;;;;;16.24;62.19;100835.22;5082583;27;45347;-80
2022/09/24 04:48:43;;;;;;;;;15.50;11.75;;;;;16.27;62.21;100844.91;5082291;27;45559;-80
2022/09/24 04:51:09;;;;;;;;;13.50;13.50;;;;;16.26;62.45;100844.03;5082513;27;45353;-80
2022/09/24 04:53:36;;;;;;;;;14.50;13.00;;;;;16.22;62.09;100837.06;5077873;27;45678;-81
2022/09/24 04:56:02;;;;;;;;;15.50;15.50;;;;;16.20;62.36;100849.53;5076162;28;48115;-81
2022/09/24 04:58:28;;;;;;;;;12.50;11.75;;;;;16.15;62.22;100845.25;5078657;28;46186;-81
2022/09/24 05:00:54;;;;;;;;;15.25;13.00;;;;;16.16;62.34;100841.66;5082586;27;45426;-81
2022/09/24 05:03:22;;;;;;;;;11.75;11.75;;;;;16.13;62.62;100834.63;5082234;27;45490;-81
2022/09/24 05:05:48;;;;;;;;;13.75;12.50;;;;;16.16;62.81;100842.53;5080785;28;48633;-81
2022/09/24 05:08:15;;;;;;;;;14.00;12.75;;;;;16.14;62.59;100844.34;5081179;28;45684;-81
2022/09/24 05:10:45;;;;;;;;;15.25;15.25;;;;;16.15;63.02;100845.25;5087540;27;45339;-81
2022/09/24 05:13:15;;;;;;;;;12.75;12.25;;;;;16.12;62.48;100839.97;5080288;28;45255;-81
2022/09/24 05:15:43;;;;;;;;;12.25;11.00;;;;;16.10;62.93;100840.91;5081487;27;45519;-82
2022/09/24 05:18:08;;;;;;;;;13.50;13.50;;;;;16.13;63.07;100847.91;5080771;28;45492;-80
2022/09/24 05:20:36;;;;;;;;;14.50;12.00;;;;;16.12;62.99;100858.56;5082166;27;45320;-80
2022/09/24 05:23:01;;;;;;;;;17.00;13.00;;;;;16.14;62.84;100859.41;5087642;27;45490;-81
2022/09/24 05:25:27;;;;;;;;;15.25;13.00;;;;;16.13;63.04;100855.03;5076824;28;45512;-81
2022/09/24 05:27:54;;;;;;;;;17.50;14.25;;;;;16.15;63.44;100856.72;5080168;28;45219;-81
2022/09/24 05:30:23;;;;;;;;;16.00;15.25;;;;;16.17;63.34;100851.38;5081475;27;45405;-81
2022/09/24 05:32:51;;;;;;;;;14.00;14.00;;;;;16.16;62.99;100858.47;5079166;28;45238;-81
2022/09/24 05:35:19;;;;;;;;;15.50;15.00;;;;;16.14;63.64;100859.41;5096671;27;47810;-81
2022/09/24 05:37:47;;;;;;;;;16.25;15.50;;;;;16.08;63.26;100853.34;5093432;27;45459;-81
2022/09/24 05:43:00;;;;;;;;;14.00;12.50;;;;;16.09;63.20;100862.16;5080305;28;45339;-81
2022/09/24 05:45:27;;;;;;;;;15.50;13.50;;;;;16.06;63.38;100870.22;5080024;28;48583;-82
2022/09/24 05:47:52;;;;;;;;;14.50;14.00;;;;;16.03;63.62;100868.50;5094111;27;45301;-81
2022/09/24 05:50:17;;;;;;;;;16.00;14.50;;;;;15.99;63.63;100860.69;5081399;27;45346;-80
2022/09/24 05:52:44;;;;;;;;;18.75;18.00;;;;;15.99;63.99;100866.00;5079783;28;45873;-83
2022/09/24 05:55:10;;;;;;;;;18.00;16.75;;;;;15.95;64.02;100862.50;5093842;27;48123;-82
2022/09/24 05:57:36;;;;;;;;;18.00;16.25;;;;;15.96;63.92;100863.38;5093809;27;45418;-81
2022/09/24 06:00:03;;;;;;;;;16.25;16.00;;;;;15.96;64.08;100871.34;5081999;27;45343;-82
2022/09/24 06:02:29;;;;;;;;;16.25;13.00;;;;;15.94;64.24;100865.22;5088095;27;45324;-83
2022/09/24 06:04:56;;;;;;;;;16.50;13.00;;;;;15.98;64.23;100875.72;5083817;27;45479;-81
2022/09/24 06:07:22;;;;;;;;;16.50;15.50;;;;;15.92;64.26;100872.34;5085350;27;45510;-82
2022/09/24 06:09:47;;;;;;;;;10.50;9.25;;;;;15.92;64.38;100865.25;5079398;28;45473;-82
2022/09/24 06:12:16;;;;;;;;;14.50;14.50;;;;;15.96;64.60;100877.56;5078201;28;45589;-81
2022/09/24 06:14:41;;;;;;;;;16.50;15.50;;;;;15.99;64.44;100882.78;5091496;27;48309;-81
2022/09/24 06:17:08;;;;;;;;;18.75;16.25;;;;;15.99;64.66;100887.25;5079491;27;45467;-82
2022/09/24 06:19:33;;;;;;;;;12.00;11.00;;;;;15.97;64.76;100881.94;5078684;28;45271;-82
2022/09/24 06:21:58;;;;;;;;;17.25;17.25;;;;;15.99;64.64;100888.09;5078128;27;45565;-81
2022/09/24 06:24:24;;;;;;;;;17.00;15.50;;;;;16.03;64.86;100884.44;5077404;27;46671;-81
2022/09/24 06:26:50;;;;;;;;;15.00;15.00;;;;;16.05;64.73;100890.59;5077691;28;45256;-81
2022/09/24 06:29:16;;;;;;;;;17.00;15.25;;;;;16.08;64.52;100887.88;5077651;28;45399;-81
2022/09/24 06:31:42;;;;;;;;;14.00;13.25;;;;;16.12;64.56;100893.09;5078259;28;45266;-80
2022/09/24 06:34:08;;;;;;;;;18.50;14.75;;;;;16.12;64.64;100896.66;5077882;28;47322;-81
2022/09/24 06:36:34;;;;;;;;;14.75;12.00;;;;;16.15;64.18;100901.88;5077626;28;45545;-81
2022/09/24 06:39:02;;;;;;;;;18.00;16.00;;;;;16.15;64.42;100899.22;5074578;28;45523;-81
2022/09/24 06:41:27;;;;;;;;;18.50;16.00;;;;;16.15;64.49;100899.22;5072485;28;45435;-81
2022/09/24 06:43:54;;;;;;;;;14.75;13.50;;;;;16.13;64.54;100898.38;5080299;27;45249;-81
2022/09/24 06:46:21;;;;;;;;;19.50;17.50;;;;;16.16;64.36;100897.44;5097871;27;45496;-81
2022/09/24 06:48:49;;;;;;;;;16.00;13.00;;;;;16.17;64.26;100899.19;5082328;27;45217;-80
2022/09/24 06:51:14;;;;;;;;;16.25;14.50;;;;;16.20;64.39;100896.44;5082459;28;45373;-80
2022/09/24 06:53:40;;;;;;;;;16.25;14.25;;;;;16.20;64.39;100907.06;5082272;27;45478;-81
2022/09/24 06:56:08;;;;;;;;;13.75;12.50;;;;;16.24;64.42;100904.31;5080932;28;45862;-80
2022/09/24 06:58:33;;;;;;;;;12.75;12.75;;;;;16.29;64.45;100909.50;5081900;27;45178;-81
2022/09/24 07:01:03;;;;;;;;;12.00;11.00;;;;;16.28;64.46;100908.66;5081717;27;45409;-80
2022/09/24 07:03:37;;;;;;;;;10.25;10.25;;;;;16.32;64.32;100906.78;5080475;28;47022;-81
2022/09/24 07:06:06;;;;;;;;;12.00;11.00;;;;;16.32;64.14;100906.78;5079780;28;45448;-78
2022/09/24 07:08:32;;;;;;;;;11.50;10.25;;;;;16.38;64.01;100916.38;5082213;27;45392;-79
2022/09/24 07:10:57;;;;;;;;;15.00;12.25;;;;;16.37;63.90;100898.69;5080985;28;46151;-78
2022/09/24 07:13:26;;;;;;;;;9.75;9.50;;;;;16.37;63.52;100909.31;5080559;28;47102;-79
2022/09/24 07:15:51;;;;;;;;;12.00;10.00;;;;;16.43;63.68;100917.13;5081442;27;45268;-79
2022/09/24 07:18:18;;;;;;;;;11.00;10.50;;;;;16.45;63.54;100913.53;5081933;27;45541;-79
2022/09/24 07:20:43;;;;;;;;;10.00;9.50;;;;;16.48;63.69;100918.75;5081661;27;45364;-79
2022/09/24 07:23:10;;;;;;;;;10.75;9.75;;;;;16.48;63.43;100915.25;5079876;28;47182;-80
2022/09/24 07:25:37;;;;;;;;;10.75;9.75;;;;;16.52;63.56;100912.47;5081733;27;45408;-80
2022/09/24 07:28:05;;;;;;;;;13.50;11.25;;;;;16.59;63.68;100920.28;5081176;27;45204;-80
2022/09/24 07:30:32;;;;;;;;;12.00;10.25;;;;;16.62;63.29;100921.06;5079649;27;45769;-79
2022/09/24 07:32:57;;;;;;;;;13.75;11.75;;;;;16.63;63.36;100920.16;5086625;27;48279;-79
2022/09/24 07:35:27;;;;;;;;;5.50;5.25;;;;;16.68;63.14;100925.34;5079976;28;46180;-80
2022/09/24 07:38:03;;;;;;;;;13.00;11.50;;;;;16.71;63.05;100934.13;5080333;28;45330;-81
2022/09/24 07:40:30;;;;;;;;;12.00;12.00;;;;;16.72;63.28;100932.34;5081454;27;45484;-81
2022/09/24 07:42:58;;;;;;;;;11.00;11.00;;;;;16.77;63.13;100927.81;5081069;28;45298;-80
2022/09/24 07:45:26;;;;;;;;;13.00;12.75;;;;;16.73;62.85;100924.34;5081622;27;45469;-81
2022/09/24 07:48:03;;;;;;;;;9.25;9.25;;;;;16.75;62.50;100929.59;5094336;27;45364;-82
2022/09/24 07:50:31;;;;;;;;;9.25;8.25;;;;;16.78;62.84;100932.19;5091422;27;45476;-82
2022/09/24 07:53:02;;;;;;;;;12.50;9.75;;;;;16.83;62.95;100935.63;5081171;27;46478;-82
2022/09/24 07:55:27;;;;;;;;;11.50;10.00;;;;;16.87;62.82;100933.78;5093309;27;45535;-82
2022/09/24 07:57:54;;;;;;;;;11.50;9.25;;;;;16.95;62.46;100943.28;5075515;28;45460;-81
2022/09/24 08:00:21;;;;;;;;;11.25;11.25;;;;;16.98;62.41;100942.31;5080720;28;45354;-82
2022/09/24 08:02:50;;;;;;;;;11.00;9.25;;;;;17.07;62.70;100942.06;5080440;27;46119;-83
2022/09/24 08:05:18;;;;;;;;;10.75;10.75;;;;;17.11;62.58;100942.88;5081055;27;45321;-83
2022/09/24 08:07:54;;;;;;;;;11.50;9.75;;;;;17.14;61.97;100946.31;5080589;28;45416;-82
2022/09/24 08:10:20;;;;;;;;;7.25;7.25;;;;;17.14;61.78;100946.31;5079848;28;45963;-83
2022/09/24 08:12:45;;;;;;;;;11.25;9.25;;;;;17.19;61.72;100954.19;5079144;28;47142;-82
2022/09/24 08:15:10;;;;;;;;;6.75;6.75;;;;;17.19;62.01;100954.19;5076558;28;45326;-82
2022/09/24 08:17:36;;;;;;;;;11.00;8.75;;;;;17.22;62.21;100958.53;5076660;28;45498;-81
2022/09/24 08:20:01;;;;;;;;;8.75;8.75;;;;;17.25;62.00;100951.34;5079844;28;45523;-81
2022/09/24 08:22:26;;;;;;;;;8.25;8.25;;;;;17.26;62.11;100949.53;5080729;27;46430;-81
2022/09/24 08:24:53;;;;;;;;;11.00;11.00;;;;;17.25;61.83;100955.78;5080964;27;45291;-80
2022/09/24 08:27:24;;;;;;;;;11.25;11.00;;;;;17.29;62.02;100957.44;5080567;27;45533;-81
2022/09/24 08:29:52;;;;;;;;;10.75;9.00;;;;;17.32;62.27;100958.25;5079488;28;45657;-82
2022/09/24 08:32:17;;;;;;;;;14.25;11.50;;;;;17.38;61.81;100962.50;5080313;28;45525;-81
2022/09/24 08:34:44;;;;;;;;;9.00;8.25;;;;;17.39;61.42;100959.78;5079511;28;46105;-81
2022/09/24 08:37:10;;;;;;;;;11.75;10.00;;;;;17.42;61.77;100965.00;5080565;28;45464;-81
2022/09/24 08:39:35;;;;;;;;;11.50;8.50;;;;;17.45;61.39;100965.84;5080428;27;45514;-82
2022/09/24 08:42:10;;;;;;;;;10.50;10.00;;;;;17.47;61.22;100964.03;5080054;28;45535;-81
2022/09/24 08:48:06;;;;;;;;;11.50;11.50;;;;;17.64;61.24;100973.28;5081385;28;45164;-81
2022/09/24 08:50:35;;;;;;;;;10.50;9.25;;;;;17.75;60.88;100966.75;5099905;27;44867;-88
2022/09/24 08:53:51;;;;;;;;;;;;;;;;;;;;;
2022/09/24 08:56:26;;;;;;;;;12.25;12.25;;;;;17.96;60.47;100979.47;5079744;28;71691;-92
2022/09/24 08:59:00;;;;;;;;;12.00;11.00;;;;;18.02;60.72;100978.41;5100236;27;45381;-90
2022/09/24 09:02:02;;;;;;;;;11.75;11.75;;;;;18.07;60.15;100971.16;5098467;27;45855;-90
2022/09/24 09:04:46;;;;;;;;;12.00;10.75;;;;;18.15;59.94;100984.19;5075569;28;46809;-88
2022/09/24 09:07:25;;;;;;;;;13.00;12.75;;;;;18.17;59.40;100982.38;5080885;28;45286;-89
2022/09/24 09:10:06;;;;;;;;;9.75;9.50;;;;;18.19;59.70;100983.19;5070117;28;45437;-87
2022/09/24 09:12:44;;;;;;;;;12.50;12.50;;;;;18.24;59.40;100984.81;5081137;28;45430;-90
2022/09/24 09:15:32;;;;;;;;;10.00;10.00;;;;;18.32;59.86;100975.69;5099227;27;48172;-86
2022/09/24 09:18:22;;;;;;;;;12.25;9.75;;;;;18.44;59.33;100977.94;5070837;28;45323;-87
2022/09/24 09:20:48;;;;;;;;;12.50;12.00;;;;;18.52;59.98;100971.47;5081221;28;45469;-89
2022/09/24 09:23:22;;;;;;;;;11.50;11.50;;;;;18.63;58.95;100976.44;5081373;28;45452;-90
2022/09/24 09:25:54;;;;;;;;;11.25;10.25;;;;;18.70;58.68;100977.09;5096657;27;47286;-89
2022/09/24 09:28:20;;;;;;;;;10.50;10.50;;;;;18.71;58.63;100977.06;5114589;27;45468;-87
2022/09/24 09:30:46;;;;;;;;;11.75;11.75;;;;;18.78;58.79;100972.41;5080734;27;45174;-89
2022/09/24 09:33:20;;;;;;;;;13.75;12.25;;;;;18.84;58.49;100973.97;5079746;28;45611;-89
2022/09/24 09:36:04;;;;;;;;;12.00;11.00;;;;;18.92;58.36;100988.81;5087810;27;46745;-86
2022/09/24 09:38:36;;;;;;;;;15.50;14.00;;;;;18.93;57.97;100990.56;5118214;27;45444;-90
2022/09/24 09:41:17;;;;;;;;;13.50;11.75;;;;;18.97;58.27;100987.78;5090540;27;45353;-89
2022/09/24 09:43:43;;;;;;;;;8.00;7.75;;;;;18.99;57.71;100985.94;5087726;27;44907;-89
2022/09/24 09:46:17;;;;;;;;;15.50;12.25;;;;;19.06;57.62;100987.44;5103250;27;45429;-91
2022/09/24 09:48:46;;;;;;;;;13.50;12.00;;;;;19.07;57.51;100979.41;5077329;28;46088;-90
2022/09/24 09:51:20;;;;;;;;;13.25;13.25;;;;;19.13;57.81;100979.16;5099358;27;45354;-93
2022/09/24 09:53:56;;;;;;;;;15.75;15.25;;;;;19.15;57.38;100987.13;5114593;27;45660;-92
2022/09/24 09:56:43;;;;;;;;;14.75;14.00;;;;;19.12;57.91;100971.25;5080158;28;47246;-91
2022/09/24 09:59:11;;;;;;;;;14.50;13.75;;;;;19.09;57.80;100979.34;5073700;28;45276;-91
2022/09/24 10:01:44;;;;;;;;;16.25;14.25;;;;;19.03;57.68;100988.47;5082597;28;45399;-92
2022/09/24 10:04:44;;;;;;;;;15.75;14.25;;;;;19.08;57.64;100983.78;5079797;28;45643;-90
2022/09/24 10:07:11;;;;;;;;;15.25;14.25;;;;;19.10;57.74;100975.75;5071274;28;47117;-92
2022/09/24 10:09:39;;;;;;;;;13.50;12.75;;;;;19.14;57.87;100972.94;5077190;28;45413;-90
2022/09/24 10:12:25;;;;;;;;;14.50;12.75;;;;;19.16;57.80;100975.53;5077664;28;45363;-89
2022/09/24 10:15:03;;;;;;;;;18.75;17.50;;;;;19.26;57.59;100979.59;5084255;27;45733;-90
2022/09/24 10:17:38;;;;;;;;;15.00;14.00;;;;;19.36;57.69;100983.69;5075931;28;48016;-90
2022/09/24 10:20:23;;;;;;;;;17.00;15.50;;;;;19.45;57.38;100977.13;5081712;28;45460;-90
2022/09/24 10:22:55;;;;;;;;;15.00;12.50;;;;;19.58;57.41;100974.91;5076184;28;45476;-90
2022/09/24 10:25:25;;;;;;;;;14.75;13.75;;;;;19.70;56.87;100971.81;5092392;27;46053;-89
2022/09/24 10:27:53;;;;;;;;;15.75;14.25;;;;;19.85;56.29;100980.16;5096665;27;47207;-91
2022/09/24 10:30:35;;;;;;;;;13.50;13.50;;;;;19.92;56.12;100977.19;5113040;27;45721;-88
2022/09/24 10:33:07;;;;;;;;;14.50;14.50;;;;;20.03;55.91;100974.09;5080971;28;45500;-88
2022/09/24 10:35:37;;;;;;;;;18.75;16.75;;;;;20.13;55.18;100967.47;5080293;28;45557;-86
2022/09/24 10:38:17;;;;;;;;;14.50;13.00;;;;;20.30;55.45;100974.78;5081231;28;47566;-81
2022/09/24 10:40:43;;;;;;;;;13.50;13.50;;;;;20.42;55.14;100968.97;5075793;28;45304;-84
2022/09/24 10:43:17;;;;;;;;;16.75;15.25;;;;;20.52;54.23;100969.44;5079157;27;45529;-85
2022/09/24 10:45:54;;;;;;;;;16.75;16.00;;;;;20.56;54.13;100976.44;5079982;28;45507;-87
2022/09/24 10:48:32;;;;;;;;;18.00;16.00;;;;;20.57;53.92;100974.63;5081476;27;45517;-86
2022/09/24 10:51:12;;;;;;;;;15.75;14.50;;;;;20.61;53.98;100971.78;5082821;27;45604;-89
2022/09/24 10:53:47;;;;;;;;;16.25;16.25;;;;;20.60;53.17;100972.69;5068019;28;45592;-88
2022/09/24 10:56:35;;;;;;;;;20.75;17.50;;;;;20.55;53.16;100974.69;5079514;28;45597;-86
2022/09/24 10:59:20;;;;;;;;;26.25;21.25;;;;;20.57;52.86;100969.28;5098701;27;47393;-89
2022/09/24 11:01:48;;;;;;;;;16.00;16.00;;;;;20.61;52.96;100968.19;5077887;28;46209;-86
2022/09/24 11:04:41;;;;;;;;;19.25;19.25;;;;;20.72;52.88;100968.66;5084115;28;45308;-87
2022/09/24 11:07:27;;;;;;;;;28.00;25.75;;;;;20.84;52.86;100965.44;5083434;28;45465;-88
2022/09/24 11:10:04;;;;;;;;;35.00;30.25;;;;;20.97;52.81;100964.91;5071035;28;46412;-87
2022/09/24 11:12:54;;;;;;;;;42.25;33.00;;;;;21.11;52.42;100973.19;5081838;27;45254;-87
2022/09/24 11:15:35;;;;;;;;;33.50;28.25;;;;;21.19;52.11;100978.22;5089383;27;45459;-91
2022/09/24 11:18:26;;;;;;;;;22.00;19.25;;;;;21.36;51.63;100973.88;5107325;27;45463;-87
2022/09/24 11:21:08;;;;;;;;;20.00;17.00;;;;;21.60;51.69;100976.41;5077487;28;47121;-88
2022/09/24 11:23:52;;;;;;;;;22.25;20.25;;;;;21.87;51.17;100976.94;5080757;28;45397;-88
2022/09/24 11:26:28;;;;;;;;;20.25;18.00;;;;;22.20;50.64;100973.59;5080647;28;45466;-88
2022/09/24 11:29:15;;;;;;;;;18.50;17.25;;;;;22.54;50.04;100972.81;5083107;28;45290;-89
2022/09/24 11:31:58;;;;;;;;;14.50;13.50;;;;;22.91;49.46;100970.94;5083244;28;46859;-87
2022/09/24 11:34:59;;;;;;;;;22.00;21.00;;;;;23.33;48.13;100964.28;5080814;27;45514;-83
2022/09/24 11:37:38;;;;;;;;;19.75;18.25;;;;;23.70;48.22;100964.97;5074653;28;45275;-88
2022/09/24 11:40:18;;;;;;;;;17.25;15.25;;;;;24.03;46.65;100961.38;5079466;28;45599;-84
2022/09/24 11:43:02;;;;;;;;;17.25;16.50;;;;;24.27;46.45;100960.03;5079982;28;47549;-86